ETH706A HAAB-EDDF
Flight info
| Callsign | ETH706A |
|---|---|
| Flight time | N/A |
| Altitude | 34000 |
| Route | LABLA5A LABLA DCT AMUDO T124 ALRAP/N0501F350 DCT KSL/N0499F360 DCT TOMRU P751 KUNKI/N0488F380 T55 TANSA UL613 KOR DCT DIMIS DCT TRN DCT PERAN DCT GILUK DCT NOVLO DCT ZAG DCT PETOV DCT GOLVA DCT SIMBA DCT NIMDI DCT ERNAS T161 DEBHI DEBHI1C |
| Aircraft | A35K/H-SDE2E3GHIJ3J4J5LM1ORWXY/LB1D1 |
Departure
| Time | 2026-05-01 08:01 |
|---|---|
| Airport | Addis Ababa Bole International Airport (HAAB) |
Arrival
| Time | N/A |
|---|---|
| Airport | Frankfurt Main Airport (EDDF) |
| Time | Latitude | Longitude | Altitude | Speed | Heading |
|---|---|---|---|---|---|
| 2026-05-01 07:33 | 8.98248 | 38.79726 | 7630 ft | 0 kts | 346° |
| 2026-05-01 07:48 | 8.98223 | 38.79732 | 7629 ft | 2 kts | 345° |
| 2026-05-01 07:48 | 8.98207 | 38.79736 | 7631 ft | 2 kts | 346° |
| 2026-05-01 07:48 | 8.98194 | 38.79744 | 7639 ft | 2 kts | 275° |
| 2026-05-01 07:49 | 8.98194 | 38.79760 | 7637 ft | 2 kts | 259° |
| 2026-05-01 07:49 | 8.98197 | 38.79770 | 7638 ft | 0 kts | 255° |
| 2026-05-01 07:51 | 8.98197 | 38.79769 | 7638 ft | 0 kts | 255° |
| 2026-05-01 07:53 | 8.98196 | 38.79767 | 7637 ft | 1 kts | 255° |
| 2026-05-01 07:53 | 8.98195 | 38.79762 | 7637 ft | 1 kts | 255° |
| 2026-05-01 07:53 | 8.98193 | 38.79754 | 7629 ft | 1 kts | 255° |
| 2026-05-01 07:53 | 8.98189 | 38.79744 | 7629 ft | 1 kts | 249° |
| 2026-05-01 07:54 | 8.98157 | 38.79747 | 7629 ft | 5 kts | 164° |
| 2026-05-01 07:55 | 8.97989 | 38.79798 | 7630 ft | 12 kts | 163° |
| 2026-05-01 07:55 | 8.97804 | 38.79852 | 7630 ft | 16 kts | 165° |
| 2026-05-01 07:56 | 8.97660 | 38.79815 | 7632 ft | 10 kts | 253° |
| 2026-05-01 07:56 | 8.97580 | 38.79539 | 7630 ft | 30 kts | 253° |
| 2026-05-01 07:57 | 8.97516 | 38.79320 | 7633 ft | 34 kts | 253° |
| 2026-05-01 07:57 | 8.97388 | 38.78882 | 7636 ft | 30 kts | 253° |
| 2026-05-01 07:58 | 8.97276 | 38.78503 | 7645 ft | 19 kts | 253° |
| 2026-05-01 07:58 | 8.97244 | 38.78371 | 7639 ft | 6 kts | 227° |
| 2026-05-01 07:59 | 8.97216 | 38.78348 | 7645 ft | 9 kts | 228° |
| 2026-05-01 07:59 | 8.97233 | 38.78319 | 7641 ft | 4 kts | 82° |
| 2026-05-01 08:00 | 8.97242 | 38.78392 | 7554 ft | 0 kts | 73° |
| 2026-05-01 08:01 | 8.97566 | 38.79493 | 7630 ft | 140 kts | 74° |
| 2026-05-01 08:01 | 8.97891 | 38.80610 | 7628 ft | 190 kts | 75° |
| 2026-05-01 08:01 | 8.98281 | 38.81873 | 8415 ft | 177 kts | 66° |
| 2026-05-01 08:02 | 8.98925 | 38.84362 | 9252 ft | 194 kts | 77° |
| 2026-05-01 08:02 | 8.99260 | 38.85728 | 9453 ft | 206 kts | 76° |
| 2026-05-01 08:03 | 9.00018 | 38.88612 | 9874 ft | 230 kts | 75° |
| 2026-05-01 08:03 | 9.00299 | 38.89660 | 10034 ft | 238 kts | 75° |
| 2026-05-01 08:03 | 9.01223 | 38.93087 | 10425 ft | 267 kts | 75° |
| 2026-05-01 08:04 | 9.02024 | 38.96923 | 10878 ft | 292 kts | 71° |
| 2026-05-01 08:04 | 9.04153 | 39.00555 | 11368 ft | 317 kts | 45° |
| 2026-05-01 08:05 | 9.08344 | 39.02023 | 11808 ft | 346 kts | 355° |
| 2026-05-01 08:05 | 9.10639 | 39.01263 | 12029 ft | 361 kts | 331° |
| 2026-05-01 08:05 | 9.12547 | 38.99552 | 12267 ft | 376 kts | 308° |
| 2026-05-01 08:06 | 9.14068 | 38.94404 | 12746 ft | 397 kts | 274° |
| 2026-05-01 08:06 | 9.14982 | 38.88875 | 13235 ft | 409 kts | 284° |
| 2026-05-01 08:07 | 9.16485 | 38.83320 | 14073 ft | 414 kts | 287° |
| 2026-05-01 08:07 | 9.19081 | 38.78226 | 14740 ft | 417 kts | 316° |
| 2026-05-01 08:08 | 9.21379 | 38.76417 | 15133 ft | 418 kts | 328° |
| 2026-05-01 08:08 | 9.26255 | 38.73290 | 15879 ft | 423 kts | 328° |
| 2026-05-01 08:09 | 9.31242 | 38.70065 | 16664 ft | 427 kts | 328° |
| 2026-05-01 08:09 | 9.33753 | 38.68435 | 17026 ft | 430 kts | 328° |
| 2026-05-01 08:09 | 9.36280 | 38.66792 | 17395 ft | 432 kts | 328° |
| 2026-05-01 08:10 | 9.41312 | 38.63553 | 18101 ft | 435 kts | 330° |
| 2026-05-01 08:10 | 9.46536 | 38.60370 | 18673 ft | 442 kts | 330° |
| 2026-05-01 08:11 | 9.51813 | 38.57145 | 19367 ft | 443 kts | 330° |
| 2026-05-01 08:11 | 9.57112 | 38.53891 | 19978 ft | 447 kts | 329° |
| 2026-05-01 08:12 | 9.62454 | 38.50608 | 20574 ft | 450 kts | 329° |
| 2026-05-01 08:12 | 9.65137 | 38.48956 | 20883 ft | 452 kts | 329° |
| 2026-05-01 08:12 | 9.70529 | 38.45636 | 21481 ft | 455 kts | 329° |
| 2026-05-01 08:13 | 9.73215 | 38.43982 | 21734 ft | 457 kts | 329° |
| 2026-05-01 08:13 | 9.75969 | 38.42286 | 22021 ft | 459 kts | 329° |
| 2026-05-01 08:13 | 9.81441 | 38.38914 | 22599 ft | 461 kts | 330° |
| 2026-05-01 08:14 | 9.84150 | 38.37244 | 22949 ft | 461 kts | 329° |
| 2026-05-01 08:14 | 9.86932 | 38.35530 | 23206 ft | 463 kts | 330° |
| 2026-05-01 08:14 | 9.89686 | 38.33833 | 23557 ft | 463 kts | 329° |
| 2026-05-01 08:14 | 9.92382 | 38.32171 | 23707 ft | 467 kts | 330° |
| 2026-05-01 08:15 | 9.95195 | 38.30437 | 23929 ft | 469 kts | 329° |
| 2026-05-01 08:15 | 10.00792 | 38.26984 | 24354 ft | 471 kts | 329° |
| 2026-05-01 08:15 | 10.03601 | 38.25251 | 24567 ft | 474 kts | 329° |
| 2026-05-01 08:16 | 10.06427 | 38.23506 | 24852 ft | 474 kts | 329° |
| 2026-05-01 08:16 | 10.09240 | 38.21770 | 25011 ft | 477 kts | 329° |
| 2026-05-01 08:16 | 10.12097 | 38.20006 | 25129 ft | 481 kts | 329° |
| 2026-05-01 08:16 | 10.14937 | 38.18252 | 25274 ft | 484 kts | 329° |
| 2026-05-01 08:17 | 10.17814 | 38.16474 | 25508 ft | 485 kts | 329° |
| 2026-05-01 08:17 | 10.20740 | 38.14667 | 25743 ft | 486 kts | 329° |
| 2026-05-01 08:17 | 10.23589 | 38.12906 | 25967 ft | 487 kts | 329° |
| 2026-05-01 08:17 | 10.26478 | 38.11120 | 26176 ft | 489 kts | 329° |
| 2026-05-01 08:18 | 10.29391 | 38.09319 | 26410 ft | 490 kts | 329° |
| 2026-05-01 08:18 | 10.35245 | 38.05699 | 26820 ft | 493 kts | 329° |
| 2026-05-01 08:19 | 10.41101 | 38.02076 | 27271 ft | 496 kts | 329° |
| 2026-05-01 08:19 | 10.44028 | 38.00264 | 27493 ft | 498 kts | 328° |
| 2026-05-01 08:19 | 10.46995 | 37.98427 | 27697 ft | 499 kts | 328° |
| 2026-05-01 08:19 | 10.49945 | 37.96601 | 27904 ft | 501 kts | 328° |
| 2026-05-01 08:20 | 10.52940 | 37.94746 | 28119 ft | 503 kts | 328° |
| 2026-05-01 08:20 | 10.55935 | 37.92890 | 28315 ft | 504 kts | 328° |
| 2026-05-01 08:20 | 10.58957 | 37.91079 | 28510 ft | 505 kts | 330° |
| 2026-05-01 08:20 | 10.62044 | 37.89350 | 28702 ft | 507 kts | 332° |
| 2026-05-01 08:21 | 10.65150 | 37.87665 | 28873 ft | 508 kts | 332° |
| 2026-05-01 08:21 | 10.68282 | 37.85975 | 29027 ft | 510 kts | 332° |
| 2026-05-01 08:21 | 10.71410 | 37.84278 | 29222 ft | 511 kts | 332° |
| 2026-05-01 08:21 | 10.74507 | 37.82583 | 29441 ft | 511 kts | 332° |
| 2026-05-01 08:22 | 10.77679 | 37.80835 | 29696 ft | 510 kts | 331° |
| 2026-05-01 08:22 | 10.80748 | 37.79135 | 29956 ft | 510 kts | 331° |
| 2026-05-01 08:22 | 10.83865 | 37.77404 | 30196 ft | 510 kts | 331° |
| 2026-05-01 08:22 | 10.86988 | 37.75667 | 30416 ft | 510 kts | 331° |
| 2026-05-01 08:23 | 10.90080 | 37.73947 | 30662 ft | 509 kts | 331° |
| 2026-05-01 08:23 | 10.93202 | 37.72210 | 30921 ft | 508 kts | 331° |
| 2026-05-01 08:23 | 10.96283 | 37.70496 | 31177 ft | 507 kts | 331° |
| 2026-05-01 08:23 | 10.99384 | 37.68771 | 31437 ft | 505 kts | 330° |
| 2026-05-01 08:24 | 11.02472 | 37.67053 | 31691 ft | 505 kts | 330° |
| 2026-05-01 08:24 | 11.05550 | 37.65341 | 31954 ft | 504 kts | 330° |
| 2026-05-01 08:24 | 11.08626 | 37.63630 | 32215 ft | 503 kts | 330° |
| 2026-05-01 08:24 | 11.11665 | 37.61938 | 32460 ft | 502 kts | 330° |
| 2026-05-01 08:25 | 11.14760 | 37.60215 | 32713 ft | 501 kts | 330° |
| 2026-05-01 08:25 | 11.17810 | 37.58516 | 32970 ft | 501 kts | 330° |
| 2026-05-01 08:25 | 11.20825 | 37.56836 | 33245 ft | 500 kts | 330° |
| 2026-05-01 08:25 | 11.23921 | 37.55112 | 33524 ft | 499 kts | 330° |
| 2026-05-01 08:26 | 11.26918 | 37.53441 | 33784 ft | 498 kts | 330° |
| 2026-05-01 08:26 | 11.29962 | 37.51744 | 34037 ft | 497 kts | 330° |
| 2026-05-01 08:26 | 11.32996 | 37.50052 | 34269 ft | 497 kts | 330° |
| 2026-05-01 08:26 | 11.36019 | 37.48366 | 34471 ft | 496 kts | 330° |
| 2026-05-01 08:27 | 11.39048 | 37.46676 | 34653 ft | 497 kts | 330° |
| 2026-05-01 08:27 | 11.42075 | 37.44987 | 34826 ft | 497 kts | 330° |
| 2026-05-01 08:27 | 11.45109 | 37.43293 | 35041 ft | 496 kts | 330° |
| 2026-05-01 08:27 | 11.48140 | 37.41601 | 35263 ft | 496 kts | 330° |
| 2026-05-01 08:28 | 11.51170 | 37.39909 | 35462 ft | 495 kts | 330° |
| 2026-05-01 08:28 | 11.54178 | 37.38229 | 35659 ft | 495 kts | 330° |
| 2026-05-01 08:28 | 11.57209 | 37.36536 | 35856 ft | 494 kts | 330° |
| 2026-05-01 08:28 | 11.60187 | 37.34872 | 36003 ft | 495 kts | 330° |
| 2026-05-01 08:29 | 11.63216 | 37.33178 | 36027 ft | 500 kts | 330° |
| 2026-05-01 08:29 | 11.69219 | 37.29821 | 36024 ft | 500 kts | 330° |
| 2026-05-01 08:30 | 11.75297 | 37.26421 | 36026 ft | 500 kts | 330° |
| 2026-05-01 08:30 | 11.81410 | 37.23000 | 36026 ft | 500 kts | 330° |
| 2026-05-01 08:31 | 11.87517 | 37.19580 | 36022 ft | 500 kts | 330° |
| 2026-05-01 08:31 | 11.93614 | 37.16163 | 36020 ft | 500 kts | 330° |
| 2026-05-01 08:32 | 11.99669 | 37.12769 | 36021 ft | 500 kts | 330° |
| 2026-05-01 08:32 | 12.05776 | 37.09344 | 36014 ft | 500 kts | 330° |
| 2026-05-01 08:33 | 12.11871 | 37.05923 | 36016 ft | 500 kts | 330° |
| 2026-05-01 08:33 | 12.17968 | 37.02500 | 35998 ft | 500 kts | 330° |
| 2026-05-01 08:34 | 12.24058 | 36.99079 | 35997 ft | 500 kts | 330° |
| 2026-05-01 08:34 | 12.30157 | 36.95650 | 35988 ft | 499 kts | 330° |
| 2026-05-01 08:35 | 12.36214 | 36.92244 | 35965 ft | 499 kts | 330° |
| 2026-05-01 08:35 | 12.42115 | 36.88924 | 35951 ft | 499 kts | 330° |
| 2026-05-01 08:36 | 12.48185 | 36.85507 | 35948 ft | 499 kts | 330° |
| 2026-05-01 08:36 | 12.54274 | 36.82077 | 35915 ft | 499 kts | 330° |
| 2026-05-01 08:37 | 12.60366 | 36.78643 | 35917 ft | 499 kts | 330° |
| 2026-05-01 08:37 | 12.66455 | 36.75210 | 35904 ft | 499 kts | 330° |
| 2026-05-01 08:38 | 12.72544 | 36.71780 | 35894 ft | 499 kts | 330° |
| 2026-05-01 08:38 | 12.78709 | 36.68522 | 35894 ft | 499 kts | 332° |
| 2026-05-01 08:39 | 12.84947 | 36.65330 | 35889 ft | 499 kts | 332° |
| 2026-05-01 08:39 | 12.91140 | 36.62134 | 35889 ft | 499 kts | 332° |
| 2026-05-01 08:40 | 13.00447 | 36.57295 | 35885 ft | 500 kts | 332° |
| 2026-05-01 08:40 | 13.06576 | 36.54097 | 35882 ft | 500 kts | 332° |
| 2026-05-01 08:41 | 13.12790 | 36.50855 | 35880 ft | 500 kts | 332° |
| 2026-05-01 08:41 | 13.18994 | 36.47617 | 35880 ft | 500 kts | 332° |
| 2026-05-01 08:42 | 13.25202 | 36.44376 | 35881 ft | 500 kts | 332° |
| 2026-05-01 08:42 | 13.31397 | 36.41140 | 35874 ft | 500 kts | 332° |
| 2026-05-01 08:43 | 13.37617 | 36.37888 | 35876 ft | 501 kts | 332° |
| 2026-05-01 08:43 | 13.43832 | 36.34638 | 35873 ft | 501 kts | 332° |
| 2026-05-01 08:44 | 13.50014 | 36.31403 | 35871 ft | 501 kts | 332° |
| 2026-05-01 08:44 | 13.56272 | 36.28126 | 35864 ft | 501 kts | 332° |
| 2026-05-01 08:45 | 13.62515 | 36.24971 | 35870 ft | 502 kts | 337° |
| 2026-05-01 08:45 | 13.69071 | 36.23323 | 35863 ft | 505 kts | 354° |
| 2026-05-01 08:46 | 13.76093 | 36.23398 | 35864 ft | 507 kts | 1° |
| 2026-05-01 08:46 | 13.83189 | 36.23855 | 35865 ft | 508 kts | 3° |
| 2026-05-01 08:47 | 13.90204 | 36.24343 | 35864 ft | 508 kts | 2° |
| 2026-05-01 08:47 | 13.97255 | 36.24802 | 35863 ft | 508 kts | 2° |
| 2026-05-01 08:48 | 14.04306 | 36.25240 | 35862 ft | 507 kts | 2° |
| 2026-05-01 08:48 | 14.11367 | 36.25675 | 35861 ft | 508 kts | 2° |
| 2026-05-01 08:49 | 14.18415 | 36.26109 | 35864 ft | 508 kts | 2° |
| 2026-05-01 08:49 | 14.24273 | 36.26471 | 35861 ft | 508 kts | 2° |
| 2026-05-01 08:50 | 14.31330 | 36.26908 | 35861 ft | 508 kts | 2° |
| 2026-05-01 08:50 | 14.38391 | 36.27346 | 35865 ft | 508 kts | 2° |
| 2026-05-01 08:51 | 14.45439 | 36.27783 | 35864 ft | 508 kts | 2° |
| 2026-05-01 08:51 | 14.52499 | 36.28221 | 35867 ft | 508 kts | 2° |
| 2026-05-01 08:52 | 14.59555 | 36.28659 | 35867 ft | 508 kts | 2° |
| 2026-05-01 08:52 | 14.66622 | 36.29098 | 35868 ft | 508 kts | 2° |
| 2026-05-01 08:53 | 14.73666 | 36.29536 | 35867 ft | 508 kts | 2° |
| 2026-05-01 08:53 | 14.80687 | 36.29973 | 35867 ft | 508 kts | 2° |
| 2026-05-01 08:54 | 14.87785 | 36.30414 | 35870 ft | 508 kts | 2° |
| 2026-05-01 08:54 | 14.94790 | 36.30851 | 35869 ft | 508 kts | 2° |
| 2026-05-01 08:55 | 15.01845 | 36.31291 | 35870 ft | 508 kts | 2° |
| 2026-05-01 08:55 | 15.08900 | 36.31731 | 35870 ft | 507 kts | 1° |
| 2026-05-01 08:56 | 15.15962 | 36.32172 | 35874 ft | 507 kts | 1° |
| 2026-05-01 08:56 | 15.23012 | 36.32612 | 35874 ft | 507 kts | 1° |
| 2026-05-01 08:57 | 15.30048 | 36.33051 | 35875 ft | 507 kts | 1° |
| 2026-05-01 08:57 | 15.37086 | 36.33492 | 35876 ft | 506 kts | 1° |
| 2026-05-01 08:58 | 15.44091 | 36.33880 | 35879 ft | 505 kts | 359° |
| 2026-05-01 08:58 | 15.51080 | 36.33861 | 35881 ft | 505 kts | 357° |
| 2026-05-01 08:59 | 15.58089 | 36.33748 | 35882 ft | 505 kts | 357° |
| 2026-05-01 08:59 | 15.65132 | 36.33693 | 35885 ft | 504 kts | 358° |
| 2026-05-01 09:00 | 15.72145 | 36.33678 | 35888 ft | 504 kts | 358° |
| 2026-05-01 09:00 | 15.79170 | 36.33673 | 35886 ft | 504 kts | 358° |
| 2026-05-01 09:01 | 15.86183 | 36.33666 | 35886 ft | 504 kts | 358° |
| 2026-05-01 09:01 | 15.93205 | 36.33659 | 35886 ft | 504 kts | 358° |
| 2026-05-01 09:02 | 16.00213 | 36.33651 | 35890 ft | 504 kts | 358° |
| 2026-05-01 09:02 | 16.07172 | 36.33642 | 35890 ft | 504 kts | 358° |
| 2026-05-01 09:03 | 16.14049 | 36.33633 | 35890 ft | 504 kts | 358° |
| 2026-05-01 09:03 | 16.21065 | 36.33625 | 35893 ft | 503 kts | 357° |
| 2026-05-01 09:04 | 16.28056 | 36.33617 | 35892 ft | 502 kts | 357° |
| 2026-05-01 09:04 | 16.35059 | 36.33608 | 35892 ft | 502 kts | 357° |
| 2026-05-01 09:05 | 16.42042 | 36.33599 | 35889 ft | 502 kts | 357° |
| 2026-05-01 09:05 | 16.48922 | 36.33590 | 35892 ft | 502 kts | 357° |
| 2026-05-01 09:06 | 16.55974 | 36.33582 | 35889 ft | 501 kts | 357° |
| 2026-05-01 09:06 | 16.62945 | 36.33573 | 35889 ft | 501 kts | 357° |
| 2026-05-01 09:07 | 16.69916 | 36.33565 | 35889 ft | 501 kts | 357° |
| 2026-05-01 09:07 | 16.76889 | 36.33556 | 35894 ft | 501 kts | 356° |
| 2026-05-01 09:08 | 16.83870 | 36.33548 | 35892 ft | 501 kts | 356° |
| 2026-05-01 09:08 | 16.90769 | 36.33539 | 35892 ft | 501 kts | 356° |
| 2026-05-01 09:09 | 16.97565 | 36.33531 | 35892 ft | 500 kts | 356° |
| 2026-05-01 09:09 | 17.04536 | 36.33522 | 35894 ft | 500 kts | 356° |
| 2026-05-01 09:10 | 17.11468 | 36.33514 | 35890 ft | 500 kts | 356° |
| 2026-05-01 09:10 | 17.18394 | 36.33505 | 35890 ft | 500 kts | 356° |
| 2026-05-01 09:11 | 17.25363 | 36.33496 | 35897 ft | 500 kts | 356° |
| 2026-05-01 09:11 | 17.32258 | 36.33489 | 35899 ft | 500 kts | 356° |
| 2026-05-01 09:12 | 17.39156 | 36.33481 | 35897 ft | 500 kts | 356° |
| 2026-05-01 09:12 | 17.46066 | 36.33471 | 35899 ft | 500 kts | 356° |
| 2026-05-01 09:13 | 17.53032 | 36.33462 | 35897 ft | 500 kts | 356° |
| 2026-05-01 09:13 | 17.59914 | 36.33453 | 35898 ft | 500 kts | 356° |
| 2026-05-01 09:14 | 17.66840 | 36.33445 | 35900 ft | 500 kts | 356° |
| 2026-05-01 09:14 | 17.73818 | 36.33436 | 35900 ft | 500 kts | 356° |
| 2026-05-01 09:15 | 17.80778 | 36.33428 | 35900 ft | 500 kts | 356° |
| 2026-05-01 09:15 | 17.87746 | 36.33419 | 35905 ft | 500 kts | 355° |
| 2026-05-01 09:16 | 17.94701 | 36.33410 | 35900 ft | 501 kts | 355° |
| 2026-05-01 09:17 | 18.05005 | 36.33398 | 35899 ft | 501 kts | 355° |
| 2026-05-01 09:17 | 18.15467 | 36.33384 | 35905 ft | 501 kts | 355° |
| 2026-05-01 09:18 | 18.25897 | 36.33371 | 35903 ft | 502 kts | 355° |
| 2026-05-01 09:19 | 18.36362 | 36.33358 | 35904 ft | 502 kts | 355° |
| 2026-05-01 09:20 | 18.46849 | 36.33345 | 35906 ft | 502 kts | 355° |
| 2026-05-01 09:21 | 18.60842 | 36.33327 | 35912 ft | 502 kts | 355° |
| 2026-05-01 09:21 | 18.71335 | 36.33315 | 35923 ft | 502 kts | 355° |
| 2026-05-01 09:22 | 18.85266 | 36.33297 | 35911 ft | 502 kts | 355° |
| 2026-05-01 09:23 | 18.95779 | 36.33283 | 35918 ft | 502 kts | 355° |
| 2026-05-01 09:24 | 19.06215 | 36.33272 | 35931 ft | 501 kts | 355° |
| 2026-05-01 09:25 | 19.20156 | 36.33253 | 35941 ft | 501 kts | 355° |
| 2026-05-01 09:26 | 19.30626 | 36.33240 | 35936 ft | 501 kts | 354° |
| 2026-05-01 09:26 | 19.41085 | 36.33226 | 35935 ft | 501 kts | 354° |
| 2026-05-01 09:27 | 19.51503 | 36.33213 | 35935 ft | 501 kts | 354° |
| 2026-05-01 09:28 | 19.58456 | 36.33205 | 35936 ft | 500 kts | 354° |
| 2026-05-01 09:28 | 19.65433 | 36.33196 | 35936 ft | 500 kts | 354° |
| 2026-05-01 09:29 | 19.75853 | 36.33182 | 35935 ft | 500 kts | 354° |
| 2026-05-01 09:30 | 19.86264 | 36.33169 | 35929 ft | 499 kts | 354° |
| 2026-05-01 09:30 | 19.96666 | 36.33155 | 35932 ft | 499 kts | 354° |
| 2026-05-01 09:31 | 20.03614 | 36.33146 | 35933 ft | 499 kts | 354° |
| 2026-05-01 09:32 | 20.14032 | 36.33133 | 35930 ft | 498 kts | 354° |
| 2026-05-01 09:32 | 20.24432 | 36.33120 | 35930 ft | 498 kts | 354° |
| 2026-05-01 09:33 | 20.31369 | 36.33111 | 35923 ft | 498 kts | 354° |
| 2026-05-01 09:34 | 20.41713 | 36.33097 | 35937 ft | 498 kts | 354° |
| 2026-05-01 09:34 | 20.52123 | 36.33085 | 35936 ft | 498 kts | 354° |
| 2026-05-01 09:35 | 20.62518 | 36.33071 | 35931 ft | 498 kts | 354° |
| 2026-05-01 09:36 | 20.68291 | 36.33011 | 35924 ft | 494 kts | 350° |
| 2026-05-01 09:36 | 20.75883 | 36.31129 | 35936 ft | 475 kts | 330° |
| 2026-05-01 09:37 | 20.81566 | 36.27684 | 35937 ft | 469 kts | 322° |
| 2026-05-01 09:37 | 20.88889 | 36.22594 | 35929 ft | 467 kts | 321° |
| 2026-05-01 09:38 | 20.96980 | 36.16941 | 35926 ft | 464 kts | 321° |
| 2026-05-01 09:39 | 21.05131 | 36.11286 | 35930 ft | 464 kts | 321° |
| 2026-05-01 09:39 | 21.10542 | 36.07536 | 35929 ft | 464 kts | 322° |
| 2026-05-01 09:40 | 21.18674 | 36.01896 | 35928 ft | 464 kts | 322° |
| 2026-05-01 09:41 | 21.24064 | 35.98148 | 35941 ft | 463 kts | 321° |
| 2026-05-01 09:41 | 21.32145 | 35.92525 | 35923 ft | 461 kts | 321° |
| 2026-05-01 09:42 | 21.37538 | 35.88768 | 35926 ft | 461 kts | 321° |
| 2026-05-01 09:43 | 21.48295 | 35.81264 | 35929 ft | 461 kts | 321° |
| 2026-05-01 09:43 | 21.53676 | 35.77505 | 35928 ft | 461 kts | 321° |
| 2026-05-01 09:44 | 21.61736 | 35.71872 | 35931 ft | 459 kts | 321° |
| 2026-05-01 09:45 | 21.67044 | 35.68156 | 35926 ft | 458 kts | 321° |
| 2026-05-01 09:45 | 21.75059 | 35.62535 | 35930 ft | 459 kts | 321° |
| 2026-05-01 09:46 | 21.80395 | 35.58792 | 35932 ft | 459 kts | 321° |
| 2026-05-01 09:46 | 21.85750 | 35.55034 | 35938 ft | 459 kts | 321° |
| 2026-05-01 09:47 | 21.91096 | 35.51277 | 35942 ft | 458 kts | 320° |
| 2026-05-01 09:47 | 21.96434 | 35.47520 | 35936 ft | 457 kts | 320° |
| 2026-05-01 09:48 | 22.01755 | 35.43780 | 35938 ft | 456 kts | 320° |
| 2026-05-01 09:48 | 22.07075 | 35.40082 | 35943 ft | 456 kts | 321° |
| 2026-05-01 09:49 | 22.12391 | 35.36393 | 35947 ft | 456 kts | 321° |
| 2026-05-01 09:49 | 22.17729 | 35.32681 | 35945 ft | 456 kts | 321° |
| 2026-05-01 09:50 | 22.23058 | 35.28969 | 35949 ft | 455 kts | 320° |
| 2026-05-01 09:50 | 22.28372 | 35.25264 | 35946 ft | 455 kts | 320° |
| 2026-05-01 09:51 | 22.33688 | 35.21554 | 35946 ft | 454 kts | 320° |
| 2026-05-01 09:51 | 22.38970 | 35.17864 | 35946 ft | 454 kts | 320° |
| 2026-05-01 09:52 | 22.44267 | 35.14159 | 35950 ft | 454 kts | 320° |
| 2026-05-01 09:52 | 22.49571 | 35.10446 | 35949 ft | 454 kts | 320° |
| 2026-05-01 09:53 | 22.54866 | 35.06736 | 35942 ft | 453 kts | 320° |
| 2026-05-01 09:53 | 22.60173 | 35.03016 | 35949 ft | 454 kts | 320° |
| 2026-05-01 09:54 | 22.65453 | 34.99312 | 35938 ft | 454 kts | 320° |
| 2026-05-01 09:54 | 22.70739 | 34.95599 | 35938 ft | 453 kts | 320° |
| 2026-05-01 09:55 | 22.76023 | 34.91882 | 35943 ft | 452 kts | 320° |
| 2026-05-01 09:55 | 22.81307 | 34.88162 | 35943 ft | 452 kts | 320° |
| 2026-05-01 09:56 | 22.86586 | 34.84442 | 35949 ft | 452 kts | 320° |
| 2026-05-01 09:56 | 22.91851 | 34.80730 | 35938 ft | 451 kts | 320° |
| 2026-05-01 09:57 | 22.97085 | 34.77035 | 35939 ft | 451 kts | 320° |
| 2026-05-01 09:57 | 23.02345 | 34.73318 | 35950 ft | 451 kts | 320° |
| 2026-05-01 09:58 | 23.07599 | 34.69604 | 35943 ft | 449 kts | 320° |
| 2026-05-01 09:58 | 23.12830 | 34.65903 | 35944 ft | 448 kts | 320° |
| 2026-05-01 09:59 | 23.18053 | 34.62201 | 35962 ft | 449 kts | 320° |
| 2026-05-01 09:59 | 23.23276 | 34.58496 | 35948 ft | 449 kts | 320° |
| 2026-05-01 10:00 | 23.28500 | 34.54787 | 35950 ft | 448 kts | 320° |
| 2026-05-01 10:00 | 23.33722 | 34.51076 | 35947 ft | 448 kts | 320° |
| 2026-05-01 10:01 | 23.38953 | 34.47357 | 35958 ft | 449 kts | 320° |
| 2026-05-01 10:01 | 23.44170 | 34.43647 | 35954 ft | 447 kts | 320° |
| 2026-05-01 10:02 | 23.49360 | 34.39947 | 35934 ft | 447 kts | 320° |
| 2026-05-01 10:02 | 23.54556 | 34.36239 | 35952 ft | 447 kts | 320° |
| 2026-05-01 10:03 | 23.59752 | 34.32528 | 35948 ft | 447 kts | 320° |
| 2026-05-01 10:03 | 23.64958 | 34.28807 | 35955 ft | 447 kts | 320° |
| 2026-05-01 10:04 | 23.70168 | 34.25081 | 35952 ft | 447 kts | 320° |
| 2026-05-01 10:04 | 23.75370 | 34.21357 | 35959 ft | 447 kts | 320° |
| 2026-05-01 10:05 | 23.80561 | 34.17638 | 35965 ft | 445 kts | 320° |
| 2026-05-01 10:05 | 23.85703 | 34.13963 | 35947 ft | 444 kts | 320° |
| 2026-05-01 10:06 | 23.90878 | 34.10284 | 35950 ft | 444 kts | 320° |
| 2026-05-01 10:06 | 23.96057 | 34.06599 | 35950 ft | 444 kts | 320° |
| 2026-05-01 10:07 | 24.01238 | 34.02906 | 35946 ft | 444 kts | 320° |
| 2026-05-01 10:07 | 24.06422 | 33.99205 | 35945 ft | 444 kts | 320° |
| 2026-05-01 10:08 | 24.14178 | 33.93662 | 35969 ft | 444 kts | 320° |
| 2026-05-01 10:09 | 24.19340 | 33.89970 | 35946 ft | 442 kts | 320° |
| 2026-05-01 10:09 | 24.24455 | 33.86306 | 35947 ft | 442 kts | 320° |
| 2026-05-01 10:10 | 24.29613 | 33.82607 | 35946 ft | 442 kts | 320° |
| 2026-05-01 10:10 | 24.37334 | 33.77066 | 35946 ft | 442 kts | 320° |
| 2026-05-01 10:11 | 24.42477 | 33.73370 | 35947 ft | 442 kts | 320° |
| 2026-05-01 10:11 | 24.47612 | 33.69674 | 35952 ft | 442 kts | 320° |
| 2026-05-01 10:12 | 24.51906 | 33.66581 | 35947 ft | 441 kts | 320° |
| 2026-05-01 10:13 | 24.60414 | 33.60447 | 35944 ft | 440 kts | 320° |
| 2026-05-01 10:13 | 24.65553 | 33.56737 | 35944 ft | 440 kts | 320° |
| 2026-05-01 10:14 | 24.73208 | 33.51203 | 35946 ft | 440 kts | 320° |
| 2026-05-01 10:14 | 24.78358 | 33.47476 | 35967 ft | 441 kts | 320° |
| 2026-05-01 10:15 | 24.83473 | 33.43768 | 35944 ft | 442 kts | 320° |
| 2026-05-01 10:15 | 24.88581 | 33.40064 | 35944 ft | 442 kts | 320° |
| 2026-05-01 10:16 | 24.93719 | 33.36334 | 35938 ft | 442 kts | 320° |
| 2026-05-01 10:17 | 25.01435 | 33.30726 | 35942 ft | 442 kts | 320° |
| 2026-05-01 10:17 | 25.09132 | 33.25123 | 35944 ft | 442 kts | 320° |
| 2026-05-01 10:18 | 25.16862 | 33.19487 | 35944 ft | 444 kts | 320° |
| 2026-05-01 10:19 | 25.21973 | 33.15756 | 35941 ft | 444 kts | 320° |
| 2026-05-01 10:19 | 25.27130 | 33.11996 | 35935 ft | 443 kts | 320° |
| 2026-05-01 10:20 | 25.34852 | 33.06343 | 35937 ft | 443 kts | 320° |
| 2026-05-01 10:20 | 25.39982 | 33.02584 | 35938 ft | 443 kts | 320° |
| 2026-05-01 10:21 | 25.47715 | 32.96911 | 35937 ft | 444 kts | 320° |
| 2026-05-01 10:22 | 25.55434 | 32.91240 | 35939 ft | 444 kts | 320° |
| 2026-05-01 10:23 | 25.63105 | 32.85598 | 35930 ft | 442 kts | 320° |
| 2026-05-01 10:23 | 25.70789 | 32.79937 | 35938 ft | 441 kts | 320° |
| 2026-05-01 10:24 | 25.75579 | 32.75775 | 35947 ft | 433 kts | 309° |
| 2026-05-01 10:24 | 25.78913 | 32.71648 | 35928 ft | 432 kts | 306° |
| 2026-05-01 10:25 | 25.86602 | 32.61383 | 35949 ft | 432 kts | 306° |
| 2026-05-01 10:26 | 25.90434 | 32.56247 | 35932 ft | 430 kts | 306° |
| 2026-05-01 10:27 | 25.98081 | 32.46023 | 35929 ft | 430 kts | 306° |
| 2026-05-01 10:28 | 26.03787 | 32.38383 | 35946 ft | 430 kts | 306° |
| 2026-05-01 10:28 | 26.09509 | 32.30709 | 35926 ft | 429 kts | 306° |
| 2026-05-01 10:29 | 26.15213 | 32.23048 | 35936 ft | 430 kts | 306° |
| 2026-05-01 10:30 | 26.22837 | 32.12782 | 35929 ft | 431 kts | 306° |
| 2026-05-01 10:31 | 26.30463 | 32.02494 | 35927 ft | 429 kts | 306° |
| 2026-05-01 10:32 | 26.36162 | 31.94789 | 35927 ft | 429 kts | 306° |
| 2026-05-01 10:33 | 26.43746 | 31.84515 | 35937 ft | 429 kts | 306° |
| 2026-05-01 10:34 | 26.49436 | 31.76791 | 35937 ft | 428 kts | 306° |
| 2026-05-01 10:34 | 26.53212 | 31.71658 | 35947 ft | 428 kts | 306° |
| 2026-05-01 10:35 | 26.58881 | 31.63941 | 35947 ft | 429 kts | 306° |
| 2026-05-01 10:35 | 26.62681 | 31.58761 | 35961 ft | 429 kts | 306° |
| 2026-05-01 10:36 | 26.68343 | 31.51032 | 35990 ft | 429 kts | 306° |
| 2026-05-01 10:37 | 26.72110 | 31.45882 | 35985 ft | 427 kts | 306° |
| 2026-05-01 10:37 | 26.77753 | 31.38157 | 36001 ft | 427 kts | 306° |
| 2026-05-01 10:38 | 26.81511 | 31.33005 | 36001 ft | 427 kts | 306° |
| 2026-05-01 10:38 | 26.85270 | 31.27848 | 36028 ft | 427 kts | 306° |
| 2026-05-01 10:39 | 26.88997 | 31.22723 | 36036 ft | 426 kts | 306° |
| 2026-05-01 10:39 | 26.92741 | 31.17572 | 36045 ft | 425 kts | 306° |
| 2026-05-01 10:40 | 26.96464 | 31.12442 | 36046 ft | 425 kts | 306° |
| 2026-05-01 10:40 | 27.00188 | 31.07305 | 36047 ft | 425 kts | 306° |
| 2026-05-01 10:41 | 27.04282 | 31.02494 | 36048 ft | 430 kts | 316° |
| 2026-05-01 10:42 | 27.11519 | 30.96512 | 36048 ft | 432 kts | 320° |
| 2026-05-01 10:42 | 27.16441 | 30.92633 | 36047 ft | 428 kts | 320° |
| 2026-05-01 10:43 | 27.21280 | 30.88804 | 36048 ft | 426 kts | 320° |
| 2026-05-01 10:43 | 27.26121 | 30.84948 | 36056 ft | 426 kts | 320° |
| 2026-05-01 10:44 | 27.30930 | 30.81105 | 36046 ft | 427 kts | 320° |
| 2026-05-01 10:44 | 27.35783 | 30.77225 | 36045 ft | 427 kts | 320° |
| 2026-05-01 10:45 | 27.40627 | 30.73348 | 36039 ft | 427 kts | 320° |
| 2026-05-01 10:45 | 27.45473 | 30.69466 | 36039 ft | 427 kts | 320° |
| 2026-05-01 10:46 | 27.50323 | 30.65577 | 36038 ft | 427 kts | 320° |
| 2026-05-01 10:46 | 27.55152 | 30.61700 | 36035 ft | 427 kts | 320° |
| 2026-05-01 10:47 | 27.60011 | 30.57795 | 36042 ft | 428 kts | 320° |
| 2026-05-01 10:47 | 27.64852 | 30.53898 | 36032 ft | 428 kts | 320° |
| 2026-05-01 10:48 | 27.69706 | 30.49988 | 36031 ft | 429 kts | 320° |
| 2026-05-01 10:48 | 27.74566 | 30.46069 | 36033 ft | 429 kts | 320° |
| 2026-05-01 10:49 | 27.79387 | 30.42177 | 36030 ft | 429 kts | 320° |
| 2026-05-01 10:49 | 27.84232 | 30.38261 | 36027 ft | 428 kts | 320° |
| 2026-05-01 10:50 | 27.89063 | 30.34354 | 36025 ft | 427 kts | 320° |
| 2026-05-01 10:50 | 27.93888 | 30.30445 | 36013 ft | 427 kts | 320° |
| 2026-05-01 10:51 | 27.98702 | 30.26540 | 36014 ft | 427 kts | 320° |
| 2026-05-01 10:51 | 28.03527 | 30.22623 | 36031 ft | 427 kts | 320° |
| 2026-05-01 10:52 | 28.08355 | 30.18699 | 36030 ft | 427 kts | 320° |
| 2026-05-01 10:52 | 28.13188 | 30.14766 | 36009 ft | 427 kts | 320° |
| 2026-05-01 10:53 | 28.18023 | 30.10827 | 36000 ft | 427 kts | 320° |
| 2026-05-01 10:53 | 28.22831 | 30.06907 | 36022 ft | 425 kts | 320° |
| 2026-05-01 10:54 | 28.27649 | 30.02973 | 36009 ft | 426 kts | 320° |
| 2026-05-01 10:54 | 28.32458 | 29.99041 | 36007 ft | 426 kts | 320° |
| 2026-05-01 10:55 | 28.37231 | 29.95136 | 36006 ft | 426 kts | 320° |
| 2026-05-01 10:55 | 28.42039 | 29.91197 | 35999 ft | 426 kts | 320° |
| 2026-05-01 10:56 | 28.46839 | 29.87259 | 35999 ft | 426 kts | 320° |
| 2026-05-01 10:56 | 28.51643 | 29.83315 | 35999 ft | 426 kts | 320° |
| 2026-05-01 10:57 | 28.56452 | 29.79362 | 35995 ft | 424 kts | 320° |
| 2026-05-01 10:57 | 28.61202 | 29.75453 | 35990 ft | 424 kts | 320° |
| 2026-05-01 10:58 | 28.66006 | 29.71495 | 35990 ft | 424 kts | 320° |
| 2026-05-01 10:58 | 28.70797 | 29.67542 | 35988 ft | 424 kts | 320° |
| 2026-05-01 10:59 | 28.75527 | 29.63636 | 35985 ft | 424 kts | 320° |
| 2026-05-01 10:59 | 28.80307 | 29.59684 | 35982 ft | 424 kts | 320° |
| 2026-05-01 11:00 | 28.85084 | 29.55729 | 35988 ft | 424 kts | 320° |
| 2026-05-01 11:00 | 28.89850 | 29.51779 | 35983 ft | 423 kts | 320° |
| 2026-05-01 11:01 | 28.94612 | 29.47829 | 35977 ft | 422 kts | 320° |
| 2026-05-01 11:01 | 28.99364 | 29.43882 | 35974 ft | 422 kts | 320° |
| 2026-05-01 11:02 | 29.04116 | 29.39929 | 35974 ft | 422 kts | 320° |
| 2026-05-01 11:02 | 29.08871 | 29.35970 | 35968 ft | 422 kts | 320° |
| 2026-05-01 11:03 | 29.13794 | 29.32340 | 35967 ft | 427 kts | 327° |
| 2026-05-01 11:03 | 29.19120 | 29.29294 | 35955 ft | 429 kts | 328° |
| 2026-05-01 11:04 | 29.24518 | 29.26332 | 35958 ft | 430 kts | 329° |
| 2026-05-01 11:04 | 29.29919 | 29.23379 | 35975 ft | 429 kts | 329° |
| 2026-05-01 11:05 | 29.35298 | 29.20422 | 35971 ft | 427 kts | 328° |
| 2026-05-01 11:05 | 29.40654 | 29.17465 | 35975 ft | 427 kts | 328° |
| 2026-05-01 11:06 | 29.46008 | 29.14502 | 36007 ft | 427 kts | 328° |
| 2026-05-01 11:06 | 29.51353 | 29.11540 | 35966 ft | 430 kts | 329° |
| 2026-05-01 11:07 | 29.59459 | 29.07046 | 35966 ft | 430 kts | 329° |
| 2026-05-01 11:07 | 29.64844 | 29.04056 | 35967 ft | 430 kts | 329° |
| 2026-05-01 11:08 | 29.70243 | 29.01056 | 35967 ft | 430 kts | 328° |
| 2026-05-01 11:09 | 29.78334 | 28.96550 | 35970 ft | 431 kts | 328° |
| 2026-05-01 11:09 | 29.82822 | 28.94048 | 35970 ft | 431 kts | 328° |
| 2026-05-01 11:10 | 29.90907 | 28.89534 | 35974 ft | 430 kts | 328° |
| 2026-05-01 11:10 | 29.96295 | 28.86522 | 35974 ft | 430 kts | 328° |
| 2026-05-01 11:11 | 30.01640 | 28.83529 | 35975 ft | 430 kts | 328° |
| 2026-05-01 11:11 | 30.07012 | 28.80517 | 35974 ft | 430 kts | 328° |
| 2026-05-01 11:12 | 30.12401 | 28.77492 | 35979 ft | 430 kts | 328° |
| 2026-05-01 11:12 | 30.17779 | 28.74470 | 35979 ft | 429 kts | 328° |
| 2026-05-01 11:13 | 30.23153 | 28.71447 | 35979 ft | 429 kts | 328° |
| 2026-05-01 11:13 | 30.28505 | 28.68432 | 35979 ft | 429 kts | 328° |
| 2026-05-01 11:14 | 30.33870 | 28.65407 | 35990 ft | 429 kts | 328° |
| 2026-05-01 11:14 | 30.39253 | 28.62367 | 35982 ft | 429 kts | 328° |
| 2026-05-01 11:15 | 30.44618 | 28.59334 | 35986 ft | 429 kts | 328° |
| 2026-05-01 11:15 | 30.49994 | 28.56291 | 35986 ft | 429 kts | 328° |
| 2026-05-01 11:16 | 30.55357 | 28.53252 | 35982 ft | 429 kts | 328° |
| 2026-05-01 11:16 | 30.60722 | 28.50207 | 35986 ft | 429 kts | 328° |
| 2026-05-01 11:17 | 30.66091 | 28.47155 | 35988 ft | 430 kts | 328° |
| 2026-05-01 11:17 | 30.71452 | 28.44104 | 35992 ft | 430 kts | 328° |
| 2026-05-01 11:18 | 30.76837 | 28.41038 | 35992 ft | 430 kts | 328° |
| 2026-05-01 11:18 | 30.82217 | 28.37971 | 35991 ft | 430 kts | 328° |
| 2026-05-01 11:19 | 30.87559 | 28.34921 | 35994 ft | 429 kts | 328° |
| 2026-05-01 11:19 | 30.92932 | 28.31850 | 35996 ft | 429 kts | 328° |
| 2026-05-01 11:20 | 30.98297 | 28.28777 | 35997 ft | 430 kts | 328° |
| 2026-05-01 11:20 | 31.03682 | 28.25690 | 35997 ft | 430 kts | 328° |
| 2026-05-01 11:21 | 31.09058 | 28.22605 | 35996 ft | 430 kts | 328° |
| 2026-05-01 11:21 | 31.14416 | 28.19527 | 35999 ft | 430 kts | 328° |
| 2026-05-01 11:22 | 31.19751 | 28.16458 | 36025 ft | 430 kts | 328° |
| 2026-05-01 11:22 | 31.25139 | 28.13353 | 36001 ft | 431 kts | 328° |
| 2026-05-01 11:23 | 31.30523 | 28.10247 | 36017 ft | 431 kts | 328° |
| 2026-05-01 11:23 | 31.35920 | 28.07131 | 36004 ft | 431 kts | 328° |
| 2026-05-01 11:24 | 31.41296 | 28.04023 | 36003 ft | 431 kts | 328° |
| 2026-05-01 11:25 | 31.49343 | 27.99426 | 36011 ft | 433 kts | 331° |
| 2026-05-01 11:25 | 31.57774 | 27.95493 | 36004 ft | 435 kts | 332° |
| 2026-05-01 11:26 | 31.66264 | 27.91650 | 36004 ft | 435 kts | 332° |
| 2026-05-01 11:27 | 31.71920 | 27.89080 | 36003 ft | 435 kts | 332° |
| 2026-05-01 11:27 | 31.77573 | 27.86503 | 36012 ft | 436 kts | 332° |
| 2026-05-01 11:28 | 31.83210 | 27.83928 | 36003 ft | 437 kts | 332° |
| 2026-05-01 11:28 | 31.88901 | 27.81326 | 36003 ft | 437 kts | 332° |
| 2026-05-01 11:29 | 31.97409 | 27.77429 | 36000 ft | 437 kts | 332° |
| 2026-05-01 11:30 | 32.05889 | 27.73522 | 36006 ft | 438 kts | 332° |
| 2026-05-01 11:30 | 32.11562 | 27.70906 | 36005 ft | 438 kts | 332° |
| 2026-05-01 11:31 | 32.17241 | 27.68287 | 36007 ft | 438 kts | 332° |
| 2026-05-01 11:31 | 32.22932 | 27.65659 | 36001 ft | 438 kts | 332° |
| 2026-05-01 11:32 | 32.28612 | 27.63032 | 36005 ft | 438 kts | 332° |
| 2026-05-01 11:32 | 32.34280 | 27.60410 | 36002 ft | 440 kts | 332° |
| 2026-05-01 11:33 | 32.39953 | 27.57773 | 36001 ft | 440 kts | 332° |
| 2026-05-01 11:33 | 32.45649 | 27.55120 | 36001 ft | 440 kts | 332° |
| 2026-05-01 11:34 | 32.51356 | 27.52459 | 35999 ft | 440 kts | 332° |
| 2026-05-01 11:34 | 32.57056 | 27.49801 | 36020 ft | 440 kts | 332° |
| 2026-05-01 11:35 | 32.62752 | 27.47140 | 35999 ft | 441 kts | 332° |
| 2026-05-01 11:35 | 32.68448 | 27.44477 | 35998 ft | 440 kts | 332° |
| 2026-05-01 11:36 | 32.74137 | 27.41813 | 35995 ft | 439 kts | 332° |
| 2026-05-01 11:36 | 32.79827 | 27.39134 | 35996 ft | 439 kts | 331° |
| 2026-05-01 11:37 | 32.85502 | 27.36455 | 36000 ft | 439 kts | 331° |
| 2026-05-01 11:37 | 32.91185 | 27.33771 | 35998 ft | 439 kts | 331° |
| 2026-05-01 11:38 | 32.96874 | 27.31081 | 35996 ft | 439 kts | 331° |
| 2026-05-01 11:38 | 33.02564 | 27.28389 | 35996 ft | 439 kts | 331° |
| 2026-05-01 11:39 | 33.08211 | 27.25712 | 35995 ft | 439 kts | 331° |
| 2026-05-01 11:39 | 33.13921 | 27.23001 | 35994 ft | 439 kts | 331° |
| 2026-05-01 11:40 | 33.19574 | 27.20314 | 35994 ft | 439 kts | 331° |
| 2026-05-01 11:40 | 33.25255 | 27.17610 | 35996 ft | 439 kts | 331° |
| 2026-05-01 11:41 | 33.30935 | 27.14904 | 35993 ft | 438 kts | 331° |
| 2026-05-01 11:41 | 33.36599 | 27.12201 | 35993 ft | 438 kts | 331° |
| 2026-05-01 11:42 | 33.42248 | 27.09500 | 35995 ft | 438 kts | 331° |
| 2026-05-01 11:42 | 33.47904 | 27.06792 | 35993 ft | 438 kts | 331° |
| 2026-05-01 11:43 | 33.53557 | 27.04082 | 35996 ft | 438 kts | 331° |
| 2026-05-01 11:43 | 33.59192 | 27.01377 | 35996 ft | 438 kts | 331° |
| 2026-05-01 11:44 | 33.67672 | 26.97300 | 35993 ft | 438 kts | 331° |
| 2026-05-01 11:44 | 33.73338 | 26.94570 | 35993 ft | 438 kts | 331° |
| 2026-05-01 11:45 | 33.78999 | 26.91839 | 35999 ft | 438 kts | 331° |
| 2026-05-01 11:45 | 33.84669 | 26.89100 | 35998 ft | 438 kts | 331° |
| 2026-05-01 11:46 | 33.90322 | 26.86366 | 36027 ft | 438 kts | 330° |
| 2026-05-01 11:46 | 33.95971 | 26.83630 | 36011 ft | 438 kts | 330° |
| 2026-05-01 11:47 | 34.01322 | 26.80304 | 35991 ft | 426 kts | 319° |
| 2026-05-01 11:47 | 34.06089 | 26.76090 | 35991 ft | 425 kts | 317° |
| 2026-05-01 11:48 | 34.10744 | 26.71761 | 35991 ft | 424 kts | 316° |
| 2026-05-01 11:48 | 34.15406 | 26.67394 | 36010 ft | 424 kts | 316° |
| 2026-05-01 11:49 | 34.20084 | 26.63026 | 36013 ft | 424 kts | 316° |
| 2026-05-01 11:49 | 34.24753 | 26.58672 | 35999 ft | 425 kts | 316° |
| 2026-05-01 11:50 | 34.29434 | 26.54303 | 36000 ft | 424 kts | 316° |
| 2026-05-01 11:50 | 34.34102 | 26.49941 | 36001 ft | 423 kts | 316° |
| 2026-05-01 11:51 | 34.38768 | 26.45572 | 36002 ft | 423 kts | 316° |
| 2026-05-01 11:51 | 34.43390 | 26.41237 | 36005 ft | 423 kts | 316° |
| 2026-05-01 11:52 | 34.48047 | 26.36864 | 36001 ft | 423 kts | 316° |
| 2026-05-01 11:52 | 34.52704 | 26.32485 | 36004 ft | 423 kts | 316° |
| 2026-05-01 11:53 | 34.57345 | 26.28114 | 35998 ft | 423 kts | 316° |
| 2026-05-01 11:53 | 34.61982 | 26.23741 | 35993 ft | 422 kts | 316° |
| 2026-05-01 11:54 | 34.65833 | 26.20105 | 35999 ft | 422 kts | 316° |
| 2026-05-01 11:54 | 34.70469 | 26.15721 | 35999 ft | 421 kts | 316° |
| 2026-05-01 11:55 | 34.75088 | 26.11346 | 36002 ft | 421 kts | 316° |
| 2026-05-01 11:55 | 34.79717 | 26.06957 | 36008 ft | 422 kts | 316° |
| 2026-05-01 11:56 | 34.84349 | 26.02557 | 36007 ft | 422 kts | 316° |
| 2026-05-01 11:56 | 34.88976 | 25.98155 | 36010 ft | 422 kts | 316° |
| 2026-05-01 11:57 | 34.93591 | 25.93760 | 36012 ft | 422 kts | 315° |
| 2026-05-01 11:57 | 34.98221 | 25.89344 | 36015 ft | 422 kts | 315° |
| 2026-05-01 11:58 | 35.02816 | 25.84954 | 36023 ft | 422 kts | 315° |
| 2026-05-01 11:59 | 35.09737 | 25.78329 | 36038 ft | 421 kts | 315° |
| 2026-05-01 11:59 | 35.14377 | 25.73876 | 36042 ft | 421 kts | 315° |
| 2026-05-01 12:00 | 35.21234 | 25.67240 | 36038 ft | 421 kts | 315° |
| 2026-05-01 12:01 | 35.28129 | 25.60599 | 36049 ft | 420 kts | 315° |
| 2026-05-01 12:01 | 35.32718 | 25.56174 | 36044 ft | 420 kts | 315° |
| 2026-05-01 12:02 | 35.37303 | 25.51747 | 36078 ft | 420 kts | 315° |
| 2026-05-01 12:02 | 35.41886 | 25.47315 | 36053 ft | 419 kts | 315° |
| 2026-05-01 12:03 | 35.46463 | 25.42881 | 36055 ft | 419 kts | 315° |
| 2026-05-01 12:03 | 35.51041 | 25.38440 | 36053 ft | 419 kts | 315° |
| 2026-05-01 12:04 | 35.55594 | 25.34017 | 36053 ft | 419 kts | 315° |
| 2026-05-01 12:04 | 35.60159 | 25.29575 | 36060 ft | 419 kts | 314° |
| 2026-05-01 12:05 | 35.64734 | 25.25117 | 36056 ft | 419 kts | 314° |
| 2026-05-01 12:05 | 35.71591 | 25.18423 | 36053 ft | 419 kts | 314° |
| 2026-05-01 12:06 | 35.76162 | 25.13952 | 36053 ft | 419 kts | 314° |
| 2026-05-01 12:06 | 35.80729 | 25.09478 | 36053 ft | 419 kts | 314° |
| 2026-05-01 12:07 | 35.85280 | 25.05014 | 36053 ft | 419 kts | 314° |
| 2026-05-01 12:07 | 35.89831 | 25.00542 | 36068 ft | 419 kts | 314° |
| 2026-05-01 12:08 | 35.94370 | 24.96077 | 36055 ft | 419 kts | 314° |
| 2026-05-01 12:08 | 35.98919 | 24.91594 | 36055 ft | 418 kts | 314° |
| 2026-05-01 12:09 | 36.03458 | 24.87114 | 36054 ft | 418 kts | 314° |
| 2026-05-01 12:09 | 36.08009 | 24.82621 | 36056 ft | 418 kts | 314° |
| 2026-05-01 12:10 | 36.14816 | 24.75872 | 36059 ft | 418 kts | 314° |
| 2026-05-01 12:11 | 36.21601 | 24.69128 | 36061 ft | 418 kts | 314° |
| 2026-05-01 12:11 | 36.26141 | 24.64610 | 36066 ft | 418 kts | 314° |
| 2026-05-01 12:12 | 36.30682 | 24.60083 | 36067 ft | 419 kts | 314° |
| 2026-05-01 12:12 | 36.35193 | 24.55580 | 36067 ft | 419 kts | 314° |
| 2026-05-01 12:13 | 36.39724 | 24.51051 | 36067 ft | 419 kts | 314° |
| 2026-05-01 12:13 | 36.44274 | 24.46496 | 36073 ft | 419 kts | 314° |
| 2026-05-01 12:14 | 36.48803 | 24.41959 | 36075 ft | 419 kts | 314° |
| 2026-05-01 12:14 | 36.53333 | 24.37411 | 36121 ft | 419 kts | 313° |
| 2026-05-01 12:15 | 36.57868 | 24.32842 | 36084 ft | 420 kts | 313° |
| 2026-05-01 12:15 | 36.62415 | 24.28258 | 36084 ft | 420 kts | 313° |
| 2026-05-01 12:16 | 36.66931 | 24.23702 | 36088 ft | 420 kts | 313° |
| 2026-05-01 12:16 | 36.71475 | 24.19110 | 36089 ft | 420 kts | 313° |
| 2026-05-01 12:17 | 36.76009 | 24.14520 | 36086 ft | 420 kts | 313° |
| 2026-05-01 12:17 | 36.80541 | 24.09925 | 36094 ft | 420 kts | 313° |
| 2026-05-01 12:18 | 36.85082 | 24.05313 | 36088 ft | 421 kts | 313° |
| 2026-05-01 12:18 | 36.89634 | 24.00681 | 36098 ft | 422 kts | 313° |
| 2026-05-01 12:19 | 36.94198 | 23.96044 | 36096 ft | 422 kts | 313° |
| 2026-05-01 12:19 | 36.98747 | 23.91408 | 36096 ft | 422 kts | 313° |
| 2026-05-01 12:20 | 37.03295 | 23.86762 | 36105 ft | 422 kts | 313° |
| 2026-05-01 12:20 | 37.07852 | 23.82102 | 36106 ft | 422 kts | 313° |
| 2026-05-01 12:21 | 37.12402 | 23.77443 | 36126 ft | 423 kts | 313° |
| 2026-05-01 12:21 | 37.16957 | 23.72769 | 36112 ft | 424 kts | 313° |
| 2026-05-01 12:22 | 37.21534 | 23.68067 | 36113 ft | 425 kts | 313° |
| 2026-05-01 12:22 | 37.26106 | 23.63364 | 36118 ft | 425 kts | 313° |
| 2026-05-01 12:23 | 37.30675 | 23.58656 | 36124 ft | 425 kts | 313° |
| 2026-05-01 12:23 | 37.35242 | 23.53942 | 36127 ft | 425 kts | 313° |
| 2026-05-01 12:24 | 37.39777 | 23.49253 | 36146 ft | 425 kts | 313° |
| 2026-05-01 12:24 | 37.44349 | 23.44518 | 36129 ft | 426 kts | 313° |
| 2026-05-01 12:25 | 37.51220 | 23.37384 | 36132 ft | 428 kts | 313° |
| 2026-05-01 12:26 | 37.55822 | 23.32599 | 36134 ft | 428 kts | 313° |
| 2026-05-01 12:26 | 37.62713 | 23.25421 | 36134 ft | 428 kts | 313° |
| 2026-05-01 12:27 | 37.69594 | 23.18234 | 36151 ft | 428 kts | 313° |
| 2026-05-01 12:28 | 37.76486 | 23.11019 | 36136 ft | 428 kts | 313° |
| 2026-05-01 12:29 | 37.83322 | 23.03838 | 36150 ft | 429 kts | 313° |
| 2026-05-01 12:29 | 37.90200 | 22.96601 | 36149 ft | 428 kts | 313° |
| 2026-05-01 12:30 | 37.97077 | 22.89365 | 36161 ft | 427 kts | 313° |
| 2026-05-01 12:31 | 38.01641 | 22.84569 | 36156 ft | 426 kts | 313° |
| 2026-05-01 12:31 | 38.06221 | 22.79745 | 36158 ft | 426 kts | 313° |
| 2026-05-01 12:32 | 38.10750 | 22.74965 | 36156 ft | 426 kts | 313° |
| 2026-05-01 12:32 | 38.17573 | 22.67751 | 36156 ft | 425 kts | 313° |
| 2026-05-01 12:33 | 38.22111 | 22.62941 | 36158 ft | 425 kts | 313° |
| 2026-05-01 12:33 | 38.26670 | 22.58100 | 36159 ft | 426 kts | 313° |
| 2026-05-01 12:34 | 38.31218 | 22.53263 | 36160 ft | 427 kts | 313° |
| 2026-05-01 12:34 | 38.35784 | 22.48399 | 36164 ft | 427 kts | 313° |
| 2026-05-01 12:35 | 38.40310 | 22.43572 | 36161 ft | 426 kts | 313° |
| 2026-05-01 12:35 | 38.44852 | 22.38721 | 36164 ft | 426 kts | 313° |
| 2026-05-01 12:36 | 38.49408 | 22.33845 | 36164 ft | 425 kts | 313° |
| 2026-05-01 12:36 | 38.53924 | 22.29002 | 36158 ft | 425 kts | 313° |
| 2026-05-01 12:37 | 38.58456 | 22.24131 | 36163 ft | 426 kts | 313° |
| 2026-05-01 12:37 | 38.62984 | 22.19257 | 36154 ft | 426 kts | 313° |
| 2026-05-01 12:38 | 38.67520 | 22.14370 | 36163 ft | 425 kts | 313° |
| 2026-05-01 12:38 | 38.72026 | 22.09508 | 36170 ft | 426 kts | 313° |
| 2026-05-01 12:39 | 38.76563 | 22.04605 | 36135 ft | 426 kts | 313° |
| 2026-05-01 12:39 | 38.81086 | 21.99700 | 36156 ft | 428 kts | 313° |
| 2026-05-01 12:40 | 38.84874 | 21.95588 | 36153 ft | 429 kts | 313° |
| 2026-05-01 12:40 | 38.89418 | 21.90652 | 36151 ft | 429 kts | 313° |
| 2026-05-01 12:41 | 38.93982 | 21.85684 | 36281 ft | 430 kts | 313° |
| 2026-05-01 12:41 | 38.96265 | 21.83196 | 36559 ft | 430 kts | 313° |
| 2026-05-01 12:41 | 38.98552 | 21.80700 | 36781 ft | 431 kts | 313° |
| 2026-05-01 12:42 | 39.00850 | 21.78190 | 36899 ft | 433 kts | 313° |
| 2026-05-01 12:42 | 39.03145 | 21.75679 | 37134 ft | 433 kts | 313° |
| 2026-05-01 12:42 | 39.05436 | 21.73173 | 37463 ft | 432 kts | 314° |
| 2026-05-01 12:42 | 39.07746 | 21.70640 | 37462 ft | 438 kts | 314° |
| 2026-05-01 12:43 | 39.10060 | 21.68100 | 37641 ft | 439 kts | 314° |
| 2026-05-01 12:43 | 39.12330 | 21.65612 | 37956 ft | 438 kts | 314° |
| 2026-05-01 12:43 | 39.14444 | 21.63293 | 38130 ft | 439 kts | 314° |
| 2026-05-01 12:43 | 39.16753 | 21.60756 | 38150 ft | 440 kts | 314° |
| 2026-05-01 12:44 | 39.21434 | 21.55612 | 38163 ft | 439 kts | 314° |
| 2026-05-01 12:45 | 39.30730 | 21.45357 | 38144 ft | 439 kts | 314° |
| 2026-05-01 12:45 | 39.35380 | 21.40211 | 38136 ft | 441 kts | 314° |
| 2026-05-01 12:46 | 39.40050 | 21.35035 | 38136 ft | 443 kts | 314° |
| 2026-05-01 12:46 | 39.44701 | 21.29873 | 38151 ft | 443 kts | 314° |
| 2026-05-01 12:47 | 39.49375 | 21.24677 | 38123 ft | 443 kts | 314° |
| 2026-05-01 12:47 | 39.54055 | 21.19462 | 38159 ft | 442 kts | 314° |
| 2026-05-01 12:48 | 39.58676 | 21.14307 | 38129 ft | 442 kts | 314° |
| 2026-05-01 12:48 | 39.63318 | 21.09108 | 38112 ft | 444 kts | 315° |
| 2026-05-01 12:49 | 39.68027 | 21.03827 | 38111 ft | 449 kts | 314° |
| 2026-05-01 12:49 | 39.72780 | 20.98489 | 38102 ft | 449 kts | 314° |
| 2026-05-01 12:50 | 39.77497 | 20.93186 | 38104 ft | 448 kts | 314° |
| 2026-05-01 12:50 | 39.82203 | 20.87884 | 38103 ft | 448 kts | 314° |
| 2026-05-01 12:51 | 39.86926 | 20.82551 | 38107 ft | 448 kts | 315° |
| 2026-05-01 12:52 | 39.93985 | 20.74560 | 38099 ft | 451 kts | 315° |
| 2026-05-01 12:52 | 40.00896 | 20.66721 | 38079 ft | 452 kts | 315° |
| 2026-05-01 12:53 | 40.08215 | 20.58975 | 38064 ft | 457 kts | 324° |
| 2026-05-01 12:54 | 40.13926 | 20.55190 | 38067 ft | 461 kts | 329° |
| 2026-05-01 12:54 | 40.22605 | 20.49666 | 38070 ft | 463 kts | 329° |
| 2026-05-01 12:55 | 40.31234 | 20.44127 | 38057 ft | 463 kts | 329° |
| 2026-05-01 12:56 | 40.37029 | 20.40398 | 38074 ft | 465 kts | 329° |
| 2026-05-01 12:56 | 40.42851 | 20.36641 | 38067 ft | 466 kts | 330° |
| 2026-05-01 12:57 | 40.48650 | 20.32896 | 38061 ft | 466 kts | 329° |
| 2026-05-01 12:57 | 40.57383 | 20.27241 | 38069 ft | 465 kts | 329° |
| 2026-05-01 12:58 | 40.63174 | 20.23478 | 38068 ft | 466 kts | 330° |
| 2026-05-01 12:59 | 40.71889 | 20.17810 | 38070 ft | 467 kts | 330° |
| 2026-05-01 12:59 | 40.80627 | 20.12109 | 38078 ft | 467 kts | 330° |
| 2026-05-01 13:00 | 40.89352 | 20.06398 | 38077 ft | 466 kts | 330° |
| 2026-05-01 13:01 | 40.98030 | 20.00700 | 38083 ft | 467 kts | 330° |
| 2026-05-01 13:02 | 41.05791 | 19.95591 | 38089 ft | 467 kts | 330° |
| 2026-05-01 13:07 | 41.68173 | 19.54972 | 38117 ft | 470 kts | 332° |
| 2026-05-01 13:08 | 41.74133 | 19.51163 | 38134 ft | 470 kts | 332° |
| 2026-05-01 13:08 | 41.80031 | 19.47387 | 38136 ft | 471 kts | 332° |
| 2026-05-01 13:09 | 41.85944 | 19.43597 | 38153 ft | 471 kts | 332° |
| 2026-05-01 13:09 | 41.91876 | 19.39786 | 38132 ft | 472 kts | 332° |
| 2026-05-01 13:10 | 41.97757 | 19.36001 | 38145 ft | 472 kts | 332° |
| 2026-05-01 13:10 | 42.03693 | 19.32171 | 38147 ft | 473 kts | 332° |
| 2026-05-01 13:11 | 42.09637 | 19.28330 | 38148 ft | 473 kts | 332° |
| 2026-05-01 13:11 | 42.15571 | 19.24486 | 38145 ft | 473 kts | 332° |
| 2026-05-01 13:12 | 42.21501 | 19.20636 | 38162 ft | 473 kts | 333° |
| 2026-05-01 13:12 | 42.27409 | 19.16794 | 38156 ft | 474 kts | 333° |
| 2026-05-01 13:13 | 42.33337 | 19.12930 | 38159 ft | 474 kts | 333° |
| 2026-05-01 13:13 | 42.39278 | 19.09049 | 38156 ft | 474 kts | 333° |
| 2026-05-01 13:14 | 42.45240 | 19.05145 | 38158 ft | 473 kts | 333° |
| 2026-05-01 13:14 | 42.51038 | 19.01343 | 38157 ft | 471 kts | 333° |
| 2026-05-01 13:15 | 42.56913 | 18.97481 | 38160 ft | 473 kts | 333° |
| 2026-05-01 13:15 | 42.62807 | 18.93599 | 38165 ft | 471 kts | 333° |
| 2026-05-01 13:16 | 42.68708 | 18.89705 | 38168 ft | 470 kts | 334° |
| 2026-05-01 13:16 | 42.74594 | 18.85810 | 38172 ft | 472 kts | 334° |
| 2026-05-01 13:17 | 42.86356 | 18.78003 | 38184 ft | 469 kts | 334° |
| 2026-05-01 13:18 | 42.95206 | 18.72108 | 38186 ft | 471 kts | 334° |
| 2026-05-01 13:18 | 43.01026 | 18.68221 | 38185 ft | 467 kts | 334° |
| 2026-05-01 13:19 | 43.06907 | 18.64300 | 38189 ft | 469 kts | 334° |